Harristown, IL

9:07 PM CDT on July 22, 2014 (GMT -0500)
Capital (KSPI) Elev 594 ft | 39.85 °N, 89.68 °W | Change Station

Current weather conditions updated 15 minutes ago

Clear
Clear
82 °F
Feels Like 86 °F
N
6
Wind Variable Wind from SSW

Tomorrow is forecast to be Much Cooler than today. Slight chance of a thunderstorm.

Today
High -- | Low -- °F
--% Chance of Precip.
Yesterday
High -- | Low -- °F
Precip. -- in
5:46 AM 8:18 PM
Waning Crescent, 13% visible
Pressure 29.99 in
Visibility 10.0 miles
Clouds Clear
Heat Index 86 °F
Dew Point 71 °F
Humidity 69%
Rainfall 0.00 in
Snow Depth Not available.
UV 0 out of 12
Pollen 5.70 out of 12
Air Quality Not available.
Flu Activity Not available.
METAR KSPI 230152Z 20005KT 10SM CLR 28/22 A3001 RMK AO2 SLP156 T02780217

More Conditions Fewer Conditions

Pressure 29.99 in
Visibility 10.0 miles
Clouds Clear
Heat Index 86 °F
Dew Point 71 °F
Humidity 69%
Rainfall 0.00 in
Snow Depth Not available.
UV 0 out of 12
Pollen 5.70 out of 12
Air Quality Not available.
Flu Activity Not available.
METAR KSPI 230152Z 20005KT 10SM CLR 28/22 A3001 RMK AO2 SLP156 T02780217

More Conditions Fewer Conditions

10-Day Weather Forecast

Almanac

Astronomy

Jul. 22, 2014 Rise Set
Actual Time 5:46 AM CDT 8:18 PM CDT
Civil Twilight 5:15 AM CDT 8:49 PM CDT
Nautical Twilight 4:36 AM CDT 9:28 PM CDT
Astronomical Twilight 3:52 AM CDT 10:11 PM CDT
Moon 2:19 AM CDT (7/22) 4:56 PM CDT (7/22)
Length of Visible Light 15h 34m
Length of Day
14h 32m
Tomorrow will be 1m 39s shorter.
Waning Crescent, 13% of the Moon is Illuminated
Today
Waning Crescent
Jul 26
New
Aug 3
First Quarter
Aug 10
Full
Aug 17
Last Quarter

Today's Extremes

State Highs State Lows

Community

WunderPhotos

Upload Photos

1,736,450 photos uploaded!

Nearby

Snow Depth

Station Depth Elevation
No new snow has been reported.

Earthquake Activity

City Distance Mag. Time & Date
No recent earthquake activity has been reported nearby.
Minimum magnitude displayed is 2.5.

Coastal Water Temperatures

Place Temperature
No Stations Reporting

Nearby Weather Stations

Station Location Temp. Heat Index Dew Point Humidity Wind Precip. Elev Updated Type
APPLEVILLE, Mt Auburn, IL 77.9 °F 78 °F 48 °F 35% South  at  0.0 mph - / hr 607 ft 9:03 PM CDT Normal
Sandhill Dr. & Lost Bridge Rd., Decatur, IL 80.4 °F 88 °F 79 °F 96% SW  at  0.8 mph 0.00 in / hr 676 ft 9:07 PM CDT Rapid Fire
Forsyth Pkwy, Forsyth, IL 80.6 °F 85 °F 74 °F 79% SSW  at  1.0 mph 0.00 in / hr 669 ft 9:05 PM CDT Normal
South Weather Station, Mechanicsburg, IL 78.8 °F 82 °F 73 °F 82% SW  at  3.4 mph 0.00 in / hr 587 ft 9:07 PM CDT Rapid Fire
West of lovington, Lovington, IL 77.4 °F 79 °F 73 °F 86% WSW  at  0.4 mph 0.00 in / hr 666 ft 9:07 PM CDT Rapid Fire

Show More Stations Show Fewer Stations